createdAt,value
2018-03-06T00:00:09.449Z,29.23
2018-03-06T00:02:36.849Z,31.20
2018-03-06T00:05:04.238Z,31.20
2018-03-06T00:07:31.661Z,30.50
2018-03-06T00:09:59.075Z,31.97
2018-03-06T00:12:26.463Z,29.13
2018-03-06T00:14:53.908Z,32.17
2018-03-06T00:17:21.369Z,29.93
2018-03-06T00:19:48.803Z,30.83
2018-03-06T00:22:16.230Z,30.90
2018-03-06T00:24:43.642Z,31.53
2018-03-06T00:27:11.049Z,30.13
2018-03-06T00:29:39.452Z,31.07
2018-03-06T00:32:06.872Z,31.77
2018-03-06T00:34:34.288Z,29.73
2018-03-06T00:37:01.666Z,31.57
2018-03-06T00:39:29.066Z,29.97
2018-03-06T00:41:56.479Z,30.67
2018-03-06T00:44:23.871Z,31.77
2018-03-06T00:46:51.309Z,30.80
2018-03-06T00:49:18.682Z,31.20
2018-03-06T00:51:46.070Z,31.80
2018-03-06T00:54:13.467Z,31.97
2018-03-06T00:56:40.862Z,32.30
2018-03-06T00:59:08.277Z,30.53
2018-03-06T01:01:36.209Z,32.43
2018-03-06T01:04:03.590Z,33.90
2018-03-06T01:06:30.977Z,31.57
2018-03-06T01:08:58.394Z,34.10
2018-03-06T01:11:25.825Z,33.13
2018-03-06T01:13:53.202Z,33.97
2018-03-06T01:16:20.605Z,33.00
2018-03-06T01:18:48.034Z,33.97
2018-03-06T01:21:15.410Z,33.90
2018-03-06T01:23:42.821Z,34.50
2018-03-06T01:26:13.734Z,32.17
2018-03-06T01:28:41.145Z,32.40
2018-03-06T01:31:08.581Z,33.80
2018-03-06T01:33:35.953Z,35.80
2018-03-06T01:36:03.350Z,32.83
2018-03-06T01:38:30.777Z,32.17
2018-03-06T01:40:58.206Z,34.50
2018-03-06T01:43:25.608Z,33.23
2018-03-06T01:45:53.133Z,33.43
2018-03-06T01:48:20.517Z,30.27
2018-03-06T01:50:47.909Z,34.50
2018-03-06T01:53:15.333Z,31.67
2018-03-06T01:55:42.739Z,33.47
2018-03-06T01:58:13.413Z,33.83
2018-03-06T02:00:40.789Z,33.03
2018-03-06T02:03:08.218Z,34.10
2018-03-06T02:05:35.603Z,33.00
2018-03-06T02:08:02.988Z,31.47
2018-03-06T02:10:30.470Z,32.90
2018-03-06T02:12:57.906Z,31.83
2018-03-06T02:15:25.305Z,31.70
2018-03-06T02:17:52.697Z,32.90
2018-03-06T02:20:20.138Z,35.20
2018-03-06T02:22:50.621Z,34.13
2018-03-06T02:25:18.011Z,32.33
2018-03-06T02:27:45.442Z,33.17
2018-03-06T02:30:12.818Z,32.97
2018-03-06T02:32:40.242Z,32.73
2018-03-06T02:35:07.625Z,33.00
2018-03-06T02:37:35.018Z,34.37
2018-03-06T02:40:02.456Z,33.63
2018-03-06T02:42:29.835Z,30.47
2018-03-06T02:44:57.230Z,33.70
2018-03-06T02:47:24.660Z,32.70
2018-03-06T02:49:52.112Z,31.13
2018-03-06T02:52:22.488Z,34.10
2018-03-06T02:54:56.128Z,33.67
2018-03-06T02:57:23.545Z,33.80
2018-03-06T02:59:50.936Z,33.80
2018-03-06T03:02:18.350Z,34.90
2018-03-06T03:04:45.793Z,31.00
2018-03-06T03:07:13.171Z,34.90
2018-03-06T03:09:40.545Z,32.97
2018-03-06T03:12:07.974Z,33.37
2018-03-06T03:14:38.849Z,32.60
2018-03-06T03:17:06.239Z,33.60
2018-03-06T03:19:33.623Z,35.20
2018-03-06T03:22:01.041Z,32.83
2018-03-06T03:24:28.445Z,34.00
2018-03-06T03:26:59.577Z,33.77
2018-03-06T03:29:30.325Z,33.57
2018-03-06T03:31:57.704Z,34.37
2018-03-06T03:34:25.133Z,31.77
2018-03-06T03:36:52.531Z,33.47
2018-03-06T03:39:23.721Z,32.73
2018-03-06T03:41:51.129Z,32.80
2018-03-06T03:44:18.557Z,32.63
2018-03-06T03:46:45.965Z,32.90
2018-03-06T03:49:13.356Z,34.97
2018-03-06T03:51:40.786Z,32.90
2018-03-06T03:54:08.169Z,33.30
2018-03-06T03:56:35.595Z,34.40
2018-03-06T03:59:02.989Z,33.03
2018-03-06T04:01:30.386Z,32.60
2018-03-06T04:03:57.831Z,32.60
2018-03-06T04:06:25.225Z,34.67
2018-03-06T04:08:52.666Z,32.93
2018-03-06T04:11:20.041Z,32.20
2018-03-06T04:13:47.486Z,33.20
2018-03-06T04:16:14.882Z,34.30
2018-03-06T04:18:42.401Z,33.80
2018-03-06T04:21:09.894Z,34.67
2018-03-06T04:23:38.184Z,36.17
2018-03-06T04:26:07.537Z,34.93
2018-03-06T04:28:34.928Z,36.33
2018-03-06T04:31:02.329Z,35.27
2018-03-06T04:33:29.762Z,35.10
2018-03-06T04:35:57.205Z,33.00
2018-03-06T04:38:24.630Z,35.10
2018-03-06T04:40:52.033Z,35.40
2018-03-06T04:43:19.458Z,35.90
2018-03-06T04:45:46.895Z,35.77
2018-03-06T04:48:14.319Z,35.57
2018-03-06T04:50:41.738Z,34.77
2018-03-06T04:53:09.151Z,36.20
2018-03-06T04:55:36.568Z,35.47
2018-03-06T04:58:03.957Z,34.20
2018-03-06T05:00:31.457Z,35.80
2018-03-06T05:02:58.858Z,35.80
2018-03-06T05:05:26.297Z,36.00
2018-03-06T05:07:53.693Z,34.83
2018-03-06T05:10:21.106Z,33.47
2018-03-06T05:12:48.506Z,36.10
2018-03-06T05:15:15.942Z,33.63
2018-03-06T05:17:43.344Z,33.90
2018-03-06T05:20:10.734Z,35.53
2018-03-06T05:22:38.157Z,34.83
2018-03-06T05:25:05.535Z,35.07
2018-03-06T05:27:32.946Z,36.17
2018-03-06T05:30:00.409Z,36.67
2018-03-06T05:32:27.795Z,36.30
2018-03-06T05:34:55.230Z,35.70
2018-03-06T05:37:22.609Z,34.20
2018-03-06T05:39:50.010Z,37.07
2018-03-06T05:42:17.429Z,35.83
2018-03-06T05:44:44.879Z,35.83
2018-03-06T05:47:12.285Z,34.60
2018-03-06T05:49:39.685Z,34.40
2018-03-06T05:52:07.117Z,37.07
2018-03-06T05:54:34.506Z,37.83
2018-03-06T05:57:01.898Z,35.43
2018-03-06T05:59:29.345Z,35.00
2018-03-06T06:01:56.727Z,36.50
2018-03-06T06:04:24.126Z,35.47
2018-03-06T06:06:51.558Z,35.60
2018-03-06T06:09:18.952Z,37.30
2018-03-06T06:11:46.345Z,37.90
2018-03-06T06:14:13.768Z,37.60
2018-03-06T06:16:41.134Z,36.63
2018-03-06T06:19:08.569Z,36.90
2018-03-06T06:21:35.934Z,35.10
2018-03-06T06:24:09.369Z,36.90
2018-03-06T06:26:36.741Z,37.67
2018-03-06T06:29:07.557Z,35.87
2018-03-06T06:31:34.954Z,35.43
2018-03-06T06:34:02.317Z,36.87
2018-03-06T06:36:29.745Z,33.27
2018-03-06T06:38:57.114Z,36.20
2018-03-06T06:41:24.477Z,37.30
2018-03-06T06:43:51.890Z,37.00
2018-03-06T06:46:19.252Z,37.13
2018-03-06T06:48:46.622Z,36.30
2018-03-06T06:51:14.345Z,36.50
2018-03-06T06:53:41.750Z,37.07
2018-03-06T06:56:09.122Z,37.20
2018-03-06T06:58:36.534Z,37.87
2018-03-06T07:01:03.905Z,37.23
2018-03-06T07:03:31.294Z,38.77
2018-03-06T07:05:58.706Z,35.70
2018-03-06T07:08:26.085Z,35.77
2018-03-06T07:10:56.998Z,37.70
2018-03-06T07:13:24.408Z,38.80
2018-03-06T07:15:51.825Z,36.73
2018-03-06T07:18:19.184Z,37.40
2018-03-06T07:20:46.600Z,39.13
2018-03-06T07:23:13.973Z,36.60
2018-03-06T07:25:41.331Z,37.67
2018-03-06T07:28:08.727Z,36.73
2018-03-06T07:30:36.118Z,38.23
2018-03-06T07:33:03.478Z,37.40
2018-03-06T07:35:30.880Z,36.97
2018-03-06T07:37:58.245Z,37.13
2018-03-06T07:40:25.661Z,37.37
2018-03-06T07:42:52.853Z,36.33
2018-03-06T07:45:20.273Z,36.80
2018-03-06T07:47:47.734Z,38.97
2018-03-06T07:50:15.182Z,38.23
2018-03-06T07:52:42.613Z,38.70
2018-03-06T07:55:10.013Z,36.50
2018-03-06T07:57:37.425Z,37.63
2018-03-06T08:00:04.809Z,37.00
2018-03-06T08:02:32.233Z,39.07
2018-03-06T08:04:59.629Z,37.23
2018-03-06T08:07:27.049Z,37.13
2018-03-06T08:09:54.447Z,37.90
2018-03-06T08:12:21.821Z,36.90
2018-03-06T08:14:49.219Z,37.47
2018-03-06T08:17:16.678Z,37.57
2018-03-06T08:19:44.151Z,37.63
2018-03-06T08:22:11.514Z,39.30
2018-03-06T08:24:38.943Z,35.97
2018-03-06T08:27:06.379Z,36.23
2018-03-06T08:29:33.752Z,35.60
2018-03-06T08:32:01.153Z,37.70
2018-03-06T08:34:28.526Z,37.50
2018-03-06T08:36:55.918Z,36.83
2018-03-06T08:39:23.303Z,36.80
2018-03-06T08:41:50.734Z,37.00
2018-03-06T08:44:18.210Z,36.13
2018-03-06T08:46:45.573Z,37.43
2018-03-06T08:49:12.933Z,38.27
2018-03-06T08:51:40.352Z,37.73
2018-03-06T08:54:07.755Z,37.40
2018-03-06T08:56:38.885Z,34.80
2018-03-06T08:59:06.359Z,37.87
2018-03-06T09:01:33.758Z,36.47
2018-03-06T09:04:01.126Z,36.57
2018-03-06T09:06:28.565Z,36.07
2018-03-06T09:08:55.978Z,39.97
2018-03-06T09:11:23.376Z,41.60
2018-03-06T09:13:50.749Z,38.20
2018-03-06T09:16:18.187Z,37.50
2018-03-06T09:18:45.678Z,38.53
2018-03-06T09:21:13.098Z,35.97
2018-03-06T09:23:40.494Z,36.37
2018-03-06T09:26:07.863Z,36.10
2018-03-06T09:28:35.255Z,36.63
2018-03-06T09:31:02.661Z,35.57
2018-03-06T09:33:30.035Z,37.77
2018-03-06T09:35:57.410Z,38.43
2018-03-06T09:38:24.828Z,38.17
2018-03-06T09:40:52.194Z,37.70
2018-03-06T09:43:19.590Z,39.37
2018-03-06T09:45:47.010Z,37.17
2018-03-06T09:48:14.424Z,38.90
2018-03-06T09:50:42.171Z,37.00
2018-03-06T09:53:09.549Z,38.13
2018-03-06T09:55:36.980Z,37.77
2018-03-06T09:58:04.349Z,38.00
2018-03-06T10:00:31.809Z,36.80
2018-03-06T10:02:59.259Z,38.00
2018-03-06T10:05:26.613Z,37.63
2018-03-06T10:07:54.020Z,36.60
2018-03-06T10:10:21.401Z,36.03
2018-03-06T10:12:48.825Z,36.67
2018-03-06T10:15:16.214Z,39.27
2018-03-06T10:17:43.843Z,39.33
2018-03-06T10:20:11.290Z,37.83
2018-03-06T10:22:38.689Z,37.60
2018-03-06T10:25:06.110Z,39.20
2018-03-06T10:27:33.465Z,40.60
2018-03-06T10:30:00.886Z,38.60
2018-03-06T10:32:28.258Z,38.97
2018-03-06T10:34:55.784Z,40.60
2018-03-06T10:37:23.194Z,38.40
2018-03-06T10:39:50.625Z,39.40
2018-03-06T10:42:17.997Z,38.53
2018-03-06T10:44:45.397Z,41.30
2018-03-06T10:47:12.816Z,40.23
2018-03-06T10:49:40.230Z,39.20
2018-03-06T10:52:07.589Z,40.73
2018-03-06T10:54:34.999Z,41.30
2018-03-06T10:57:02.530Z,42.00
2018-03-06T10:59:29.942Z,42.50
2018-03-06T11:01:57.345Z,45.30
2018-03-06T11:04:24.782Z,43.67
2018-03-06T11:06:52.161Z,43.37
2018-03-06T11:09:19.564Z,42.60
2018-03-06T11:11:46.997Z,43.97
2018-03-06T11:14:14.404Z,43.10
2018-03-06T11:16:41.879Z,46.13
2018-03-06T11:19:09.238Z,42.60
2018-03-06T11:21:36.609Z,41.20
2018-03-06T11:24:04.020Z,39.40
2018-03-06T11:26:31.395Z,42.17
2018-03-06T11:28:58.794Z,41.93
2018-03-06T11:31:26.208Z,38.20
2018-03-06T11:33:53.570Z,35.13
2018-03-06T11:36:20.965Z,37.83
2018-03-06T11:38:48.339Z,39.10
2018-03-06T11:41:15.694Z,38.97
2018-03-06T11:43:43.088Z,41.70
2018-03-06T11:46:10.446Z,41.43
2018-03-06T11:48:37.879Z,43.43
2018-03-06T11:51:05.237Z,45.60
2018-03-06T11:53:32.620Z,45.40
2018-03-06T11:56:00.067Z,46.40
2018-03-06T11:58:27.476Z,39.53
2018-03-06T12:00:54.901Z,41.50
2018-03-06T12:03:22.334Z,44.40
2018-03-06T12:05:49.702Z,40.83
2018-03-06T12:08:17.062Z,39.77
2018-03-06T12:10:44.693Z,41.03
2018-03-06T12:13:12.070Z,42.00
2018-03-06T12:15:39.475Z,42.27
2018-03-06T12:18:06.862Z,42.03
2018-03-06T12:20:34.360Z,40.33
2018-03-06T12:23:01.773Z,40.03
2018-03-06T12:25:29.145Z,42.50
2018-03-06T12:27:56.567Z,42.27
2018-03-06T12:30:23.958Z,42.60
2018-03-06T12:32:51.368Z,42.00
2018-03-06T12:35:18.770Z,42.67
2018-03-06T12:37:46.184Z,41.70
2018-03-06T12:40:13.653Z,39.50
2018-03-06T12:42:41.222Z,41.87
2018-03-06T12:45:08.631Z,43.17
2018-03-06T12:47:35.986Z,43.17
2018-03-06T12:50:03.439Z,43.00
2018-03-06T12:52:30.811Z,45.17
2018-03-06T12:54:58.231Z,44.60
2018-03-06T12:57:25.634Z,46.03
2018-03-06T12:59:53.015Z,43.60
2018-03-06T13:02:20.390Z,46.80
2018-03-06T13:04:47.813Z,49.17
2018-03-06T13:07:15.202Z,46.47
2018-03-06T13:09:42.561Z,46.10
2018-03-06T13:12:09.957Z,45.27
2018-03-06T13:14:37.324Z,41.70
2018-03-06T13:17:04.731Z,44.67
2018-03-06T13:19:32.151Z,45.07
2018-03-06T13:21:59.579Z,45.47
2018-03-06T13:24:27.547Z,42.03
2018-03-06T13:26:54.956Z,42.57
2018-03-06T13:29:22.332Z,43.57
2018-03-06T13:31:49.716Z,43.33
2018-03-06T13:34:17.913Z,42.90
2018-03-06T13:36:45.346Z,49.17
2018-03-06T13:39:12.728Z,47.10
2018-03-06T13:41:40.104Z,46.83
2018-03-06T13:46:50.877Z,50.17
2018-03-06T13:49:18.277Z,52.00
2018-03-06T13:51:45.659Z,53.90
2018-03-06T13:54:13.082Z,56.43
2018-03-06T13:56:40.445Z,59.43
2018-03-06T13:59:07.867Z,64.00
2018-03-06T14:01:35.226Z,63.87
2018-03-06T14:04:02.597Z,65.87
2018-03-06T14:06:29.990Z,61.90
2018-03-06T14:08:57.363Z,65.53
2018-03-06T14:11:24.754Z,69.73
2018-03-06T14:13:52.130Z,67.67
2018-03-06T14:16:19.538Z,70.33
2018-03-06T14:18:46.914Z,69.10
2018-03-06T14:21:14.286Z,70.40
2018-03-06T14:23:41.693Z,70.47
2018-03-06T14:26:09.059Z,74.30
2018-03-06T14:28:36.434Z,69.57
2018-03-06T14:31:03.838Z,68.53
2018-03-06T14:33:31.250Z,69.47
2018-03-06T14:35:58.621Z,63.87
2018-03-06T14:38:25.983Z,59.40
2018-03-06T14:40:53.390Z,56.70
2018-03-06T14:43:20.763Z,56.37
2018-03-06T14:45:48.161Z,60.00
2018-03-06T14:48:15.534Z,54.73
2018-03-06T14:50:43.804Z,55.10
2018-03-06T14:53:11.214Z,55.33
2018-03-06T14:55:38.594Z,56.97
2018-03-06T14:58:05.959Z,58.60
2018-03-06T15:00:33.390Z,58.70
2018-03-06T15:03:00.801Z,58.50
2018-03-06T15:05:28.170Z,60.10
2018-03-06T15:07:55.581Z,58.60
2018-03-06T15:10:22.980Z,62.20
2018-03-06T15:12:50.374Z,62.30
2018-03-06T15:15:17.784Z,62.80
2018-03-06T15:17:45.237Z,62.73
2018-03-06T15:20:12.603Z,63.60
2018-03-06T15:22:40.013Z,60.07
2018-03-06T15:25:07.399Z,62.70
2018-03-06T15:27:34.762Z,63.00
2018-03-06T15:30:04.079Z,64.57
2018-03-06T15:32:31.452Z,63.27
2018-03-06T15:35:02.041Z,63.20
2018-03-06T15:37:29.408Z,65.83
2018-03-06T15:39:56.846Z,61.93
2018-03-06T15:42:24.255Z,61.40
2018-03-06T15:44:51.735Z,60.13
2018-03-06T15:47:19.226Z,61.10
2018-03-06T15:49:46.618Z,64.73
2018-03-06T15:52:14.050Z,62.50
2018-03-06T15:54:41.563Z,61.90
2018-03-06T15:57:09.091Z,59.47
2018-03-06T15:59:37.414Z,60.90
2018-03-06T16:02:04.960Z,57.37
2018-03-06T16:04:32.363Z,58.07
2018-03-06T16:06:59.778Z,56.70
2018-03-06T16:09:27.224Z,57.77
2018-03-06T16:11:54.678Z,58.70
2018-03-06T16:14:27.979Z,57.93
2018-03-06T16:16:55.436Z,57.53
2018-03-06T16:19:22.862Z,57.00
2018-03-06T16:21:50.267Z,60.40
2018-03-06T16:24:17.832Z,60.40
2018-03-06T16:26:45.269Z,60.90
2018-03-06T16:29:12.712Z,59.60
2018-03-06T16:31:40.118Z,57.77
2018-03-06T16:34:07.663Z,56.60
2018-03-06T16:36:38.322Z,58.03
2018-03-06T16:39:08.990Z,58.70
2018-03-06T16:41:39.565Z,60.20
2018-03-06T16:44:07.878Z,58.30
2018-03-06T16:46:38.919Z,59.10
2018-03-06T16:49:09.856Z,63.37
2018-03-06T16:51:37.254Z,61.13
2018-03-06T16:54:04.658Z,58.50
2018-03-06T16:56:32.108Z,58.83
2018-03-06T16:59:02.619Z,60.17
2018-03-06T17:01:30.043Z,61.90
2018-03-06T17:03:57.452Z,60.83
2018-03-06T17:06:25.024Z,59.27
2018-03-06T17:08:52.435Z,61.67
2018-03-06T17:11:19.866Z,58.47
2018-03-06T17:13:47.334Z,61.53
2018-03-06T17:16:14.955Z,59.07
2018-03-06T17:18:42.362Z,60.50
2018-03-06T17:21:09.771Z,58.80
2018-03-06T17:23:37.223Z,63.77
2018-03-06T17:26:04.710Z,60.53
2018-03-06T17:28:32.150Z,61.80
2018-03-06T17:30:59.566Z,59.90
2018-03-06T17:33:30.221Z,63.00
2018-03-06T17:35:57.651Z,60.80
2018-03-06T17:38:25.062Z,61.87
2018-03-06T17:40:52.535Z,61.97
2018-03-06T17:43:20.163Z,60.20
2018-03-06T17:45:47.818Z,60.67
2018-03-06T17:48:15.358Z,60.90
2018-03-06T17:50:42.940Z,62.20
2018-03-06T17:53:10.406Z,64.17
2018-03-06T17:55:37.854Z,63.27
2018-03-06T17:58:05.364Z,60.20
2018-03-06T18:00:32.771Z,59.83
2018-03-06T18:03:00.328Z,58.70
2018-03-06T18:05:27.722Z,59.57
2018-03-06T18:07:55.240Z,58.93
2018-03-06T18:10:22.734Z,59.40
2018-03-06T18:12:50.130Z,59.10
2018-03-06T18:15:17.571Z,56.70
2018-03-06T18:17:45.014Z,58.60
2018-03-06T18:20:12.455Z,55.47
2018-03-06T18:22:39.850Z,58.10
2018-03-06T18:25:07.288Z,58.40
2018-03-06T18:27:34.686Z,58.90
2018-03-06T18:30:02.182Z,56.20
2018-03-06T18:32:29.639Z,54.40
2018-03-06T18:34:57.164Z,55.60
2018-03-06T18:37:24.643Z,57.70
2018-03-06T18:39:52.062Z,58.13
2018-03-06T18:42:19.494Z,57.70
2018-03-06T18:44:47.096Z,57.80
2018-03-06T18:47:14.586Z,56.97
2018-03-06T18:49:47.919Z,58.40
2018-03-06T18:52:15.456Z,58.97
2018-03-06T18:54:42.854Z,58.10
2018-03-06T18:57:11.212Z,61.27
2018-03-06T18:59:38.646Z,59.20
2018-03-06T19:02:11.959Z,61.20
2018-03-06T19:04:45.342Z,59.57
2018-03-06T19:07:12.799Z,60.93
2018-03-06T19:09:40.198Z,60.87
2018-03-06T19:12:07.690Z,57.27
2018-03-06T19:14:35.146Z,56.87
2018-03-06T19:17:02.598Z,59.30
2018-03-06T19:19:30.083Z,58.13
2018-03-06T19:21:57.643Z,58.40
2018-03-06T19:24:25.455Z,58.70
2018-03-06T19:26:53.014Z,57.67
2018-03-06T19:29:20.460Z,58.70
2018-03-06T19:31:47.979Z,55.97
2018-03-06T19:34:15.341Z,59.33
2018-03-06T19:36:42.961Z,55.77
2018-03-06T19:39:10.362Z,58.97
2018-03-06T19:41:37.782Z,55.67
2018-03-06T19:44:18.860Z,53.93
2018-03-06T19:46:46.234Z,56.00
2018-03-06T19:49:13.957Z,53.30
2018-03-06T19:51:41.391Z,54.37
2018-03-06T19:54:08.783Z,52.70
2018-03-06T19:56:36.206Z,53.20
2018-03-06T19:59:03.749Z,53.53
2018-03-06T20:01:31.117Z,52.27
2018-03-06T20:03:58.497Z,52.90
2018-03-06T20:06:25.936Z,51.10
2018-03-06T20:08:53.309Z,51.30
2018-03-06T20:11:20.722Z,50.77
2018-03-06T20:13:48.106Z,52.87
2018-03-06T20:16:15.509Z,49.90
2018-03-06T20:18:42.969Z,51.73
2018-03-06T20:21:10.480Z,49.97
2018-03-06T20:23:37.963Z,48.60
2018-03-06T20:26:05.339Z,49.53
2018-03-06T20:28:32.851Z,47.40
2018-03-06T20:31:06.167Z,49.07
2018-03-06T20:33:33.640Z,49.30
2018-03-06T20:36:01.162Z,49.63
2018-03-06T20:38:34.661Z,47.67
2018-03-06T20:41:02.303Z,46.40
2018-03-06T20:43:29.885Z,48.43
2018-03-06T20:46:03.197Z,47.37
2018-03-06T20:48:30.601Z,46.90
2018-03-06T20:50:58.198Z,46.60
2018-03-06T20:53:31.337Z,46.17
2018-03-06T20:55:58.755Z,46.10
2018-03-06T20:58:26.214Z,45.40
2018-03-06T21:00:53.631Z,43.00
2018-03-06T21:03:21.050Z,43.27
2018-03-06T21:05:48.485Z,44.80
2018-03-06T21:08:15.887Z,43.30
2018-03-06T21:10:43.253Z,43.77
2018-03-06T21:13:10.671Z,43.80
2018-03-06T21:15:38.106Z,42.47
2018-03-06T21:18:06.382Z,43.60
2018-03-06T21:20:33.778Z,42.20
2018-03-06T21:23:01.182Z,41.83
2018-03-06T21:25:28.653Z,41.13
2018-03-06T21:27:56.034Z,42.17
2018-03-06T21:30:23.440Z,42.30
2018-03-06T21:32:50.860Z,42.67
2018-03-06T21:35:18.226Z,42.83
2018-03-06T21:37:45.630Z,41.33
2018-03-06T21:40:12.996Z,43.50
2018-03-06T21:42:40.434Z,41.13
2018-03-06T21:45:07.793Z,40.53
2018-03-06T21:47:35.186Z,42.37
2018-03-06T21:50:02.615Z,39.50
2018-03-06T21:52:30.014Z,40.63
2018-03-06T21:54:57.420Z,40.00
2018-03-06T21:57:24.776Z,41.27
2018-03-06T21:59:52.178Z,41.67
2018-03-06T22:02:19.550Z,40.37
2018-03-06T22:04:46.958Z,39.17
2018-03-06T22:07:14.324Z,40.40
2018-03-06T22:09:41.741Z,40.30
2018-03-06T22:12:09.121Z,38.00
2018-03-06T22:14:36.505Z,40.70
2018-03-06T22:17:03.897Z,39.17
2018-03-06T22:19:31.279Z,39.00
2018-03-06T22:21:58.678Z,38.43
2018-03-06T22:24:26.063Z,40.27
2018-03-06T22:26:53.542Z,38.20
2018-03-06T22:29:20.904Z,40.17
2018-03-06T22:31:48.283Z,39.03
2018-03-06T22:34:15.709Z,38.27
2018-03-06T22:36:43.136Z,39.20
2018-03-06T22:39:10.525Z,39.43
2018-03-06T22:41:37.950Z,38.10
2018-03-06T22:44:05.362Z,38.53
2018-03-06T22:46:32.764Z,39.37
2018-03-06T22:49:00.267Z,38.07
2018-03-06T22:51:27.631Z,37.90
2018-03-06T22:53:55.036Z,38.33
2018-03-06T22:56:22.446Z,37.20
2018-03-06T22:58:49.814Z,37.97
2018-03-06T23:01:17.409Z,38.13
2018-03-06T23:03:44.817Z,36.07
2018-03-06T23:06:12.181Z,36.70
2018-03-06T23:08:39.577Z,35.97
2018-03-06T23:11:06.949Z,37.30
2018-03-06T23:13:34.341Z,36.80
2018-03-06T23:16:01.704Z,36.43
2018-03-06T23:18:29.123Z,37.13
2018-03-06T23:20:56.513Z,35.30
2018-03-06T23:23:23.871Z,36.23
2018-03-06T23:25:51.866Z,34.57
2018-03-06T23:28:20.281Z,38.67
2018-03-06T23:30:47.646Z,36.43
2018-03-06T23:33:15.049Z,36.27
2018-03-06T23:35:42.414Z,37.57
2018-03-06T23:38:09.797Z,37.57
2018-03-06T23:40:37.205Z,36.57
2018-03-06T23:43:04.577Z,37.07
2018-03-06T23:45:32.285Z,37.57
2018-03-06T23:47:59.677Z,38.13
2018-03-06T23:50:27.045Z,38.10
2018-03-06T23:52:54.471Z,36.60
2018-03-06T23:55:21.830Z,38.60
2018-03-06T23:57:49.225Z,37.53
